Latest Weather Observations for Sheffield

IDT60801

Issued at 11:35 pm EST Tuesday 30 September 2014 (issued every 30 minutes, with the page automatically refreshed every 10 minutes)

About weather observations | Map of weather stations | Latest weather observations for TAS | Other Formats
Station Details ID: 091291 Name: SHEFFIELD SCHOOL FARM Lat: -41.39 Lon: 146.32 Height: 294.2 m
Data from the previous 72 hours. | See also: Recent months at Sheffield
Date/Time
EST
Temp
°C
App
Temp
°C
Dew
Point
Rel
Hum
%
Delta-T
°C
Wind Press
QNH
hPa
Press
MSL
hPa
Rain
since 9 am
mm
Dir
 
Spd
km/h
Gust
km/h
Spd
kts
Gust
kts
30/11:30pm 4.5 -3.2 2.2 85 0.9 WSW 32 50 17 27 1006.2 1006.5 10.8
30/11:19pm 5.3 -3.1 1.8 78 1.4 WSW 35 48 19 26 1005.8 1006.1 10.8
30/11:00pm 4.7 0.8 1.2 78 1.4 WNW 11 17 6 9 1005.1 1005.4 10.8
30/10:30pm 5.0 0.0 1.5 78 1.4 W 17 28 9 15 1004.4 1004.7 10.8
30/10:00pm 4.7 -0.2 1.7 81 1.2 W 17 26 9 14 1004.0 1004.3 10.8
30/09:30pm 4.7 -0.6 2.1 83 1.1 W 19 24 10 13 1003.4 1003.7 10.8
30/09:00pm 4.6 -0.2 2.5 86 0.9 W 17 24 9 13 1003.2 1003.5 10.8
30/08:30pm 4.5 -0.8 2.8 89 0.7 W 20 30 11 16 1002.7 1003.0 10.8
30/08:00pm 4.4 -2.8 3.2 92 0.5 WSW 30 41 16 22 1002.4 1002.7 10.8
30/07:30pm 5.3 -1.3 2.1 80 1.3 W 26 39 14 21 1001.1 1001.4 10.4
30/07:00pm 5.9 -1.0 2.5 79 1.4 W 28 39 15 21 1000.0 1000.3 10.4
30/06:30pm 6.5 0.5 3.5 81 1.3 W 24 46 13 25 999.3 999.6 10.4
30/06:00pm 6.9 1.4 4.2 83 1.2 W 22 32 12 17 998.2 998.4 10.4
30/05:30pm 7.3 1.5 4.4 82 1.3 W 24 32 13 17 997.8 998.0 10.4
30/05:00pm 8.4 2.6 6.2 86 1.0 W 26 41 14 22 998.2 998.4 10.4
30/04:40pm 8.7 2.3 5.4 80 1.5 W 28 54 15 29 997.4 997.7 10.4
30/04:30pm 8.7 3.5 7.2 90 0.7 W 24 39 13 21 996.4 996.7 10.4
30/04:00pm 8.9 2.9 7.2 89 0.8 WNW 28 39 15 21 995.6 995.8 10.4
30/03:34pm 9.7 3.8 7.6 87 1.0 WNW 28 52 15 28 995.1 995.3 10.2
30/03:30pm 10.0 5.5 8.6 91 0.7 WNW 22 33 12 18 995.2 995.4 10.0
30/03:00pm 10.9 7.3 9.7 92 0.6 WNW 19 32 10 17 995.2 995.4 10.0
30/02:30pm 10.8 7.4 10.6 99 0.1 WNW 19 26 10 14 994.9 995.1 10.0
30/02:00pm 10.3 6.3 10.3 100 0.0 NW 22 35 12 19 995.4 995.6 10.0
30/01:30pm 9.8 4.9 9.8 100 0.0 NW 26 41 14 22 995.9 996.1 9.6
30/01:00pm 10.3 5.1 10.3 100 0.0 NW 28 39 15 21 996.3 996.6 7.0
30/12:30pm 10.9 4.9 10.9 100 0.0 NW 33 48 18 26 996.7 997.0 3.6
30/12:00pm 11.2 3.4 11.2 100 0.0 NNW 43 63 23 34 996.9 997.2 3.0
30/11:39am 11.1 5.4 11.1 100 0.0 NW 32 50 17 27 997.2 997.5 2.8
30/11:30am 11.3 5.6 11.3 100 0.0 NW 32 43 17 23 997.5 997.8 2.4
30/11:00am 11.0 3.9 11.0 100 0.0 NNW 39 59 21 32 998.0 998.2 1.4
30/10:45am 11.1 4.4 11.1 100 0.0 NNW 37 57 20 31 998.2 998.4 1.2
30/10:30am 10.9 4.6 10.9 100 0.0 NNW 35 52 19 28 998.7 998.9 1.0
30/10:00am 10.9 5.1 10.9 100 0.0 NNW 32 46 17 25 999.7 1000.0 0.2
30/09:30am 10.6 5.5 10.6 100 0.0 NW 28 39 15 21 1000.5 1000.8 0.2
30/09:04am 10.4 4.5 10.4 100 0.0 NNW 32 52 17 28 1001.3 1001.5 0.2
30/09:00am 10.4 4.9 10.4 100 0.0 NNW 30 41 16 22 1001.4 1001.6 2.6
30/08:30am 10.4 4.9 10.4 100 0.0 NW 30 39 16 21 1001.9 1002.1 2.4
30/08:00am 10.6 7.0 10.6 100 0.0 NW 20 30 11 16 1002.4 1002.7 2.2
30/07:30am 10.5 6.1 10.5 100 0.0 NW 24 35 13 19 1002.8 1003.1 2.2
30/07:00am 10.4 5.6 10.4 100 0.0 NW 26 39 14 21 1003.1 1003.4 1.6
30/06:30am 10.3 6.6 10.3 100 0.0 NW 20 33 11 18 1003.4 1003.7 1.0
30/06:00am 10.2 6.5 10.2 100 0.0 NW 20 28 11 15 1003.5 1003.8 0.2
30/05:30am 10.1 7.3 10.1 100 0.0 NW 15 26 8 14 1003.8 1004.1 0.0
30/05:00am 9.9 6.7 9.9 100 0.0 NW 17 28 9 15 1004.0 1004.3 0.0
30/04:30am 9.4 7.1 9.1 98 0.2 NW 11 15 6 8 1004.2 1004.5 0.0
30/04:00am 9.5 6.4 8.7 95 0.4 NW 15 19 8 10 1004.6 1004.9 0.0
30/03:30am 9.1 6.0 9.0 99 0.0 NW 15 19 8 10 1005.2 1005.5 0.0
30/03:00am 9.5 6.5 9.4 99 0.1 NNW 15 17 8 9 1005.7 1006.0 0.0
30/02:30am 9.5 7.3 9.2 98 0.2 NW 11 13 6 7 1006.1 1006.4 0.0
30/02:00am 9.9 6.7 8.5 91 0.7 NNW 15 22 8 12 1006.5 1006.8 0.0
30/01:30am 10.6 7.5 8.7 88 1.0 NNW 15 20 8 11 1006.8 1007.1 0.0
30/01:00am 10.8 6.3 8.6 86 1.1 NW 22 33 12 18 1007.3 1007.6 0.0
30/12:30am 10.4 7.0 9.0 91 0.7 NNW 17 22 9 12 1007.6 1007.9 0.0
30/12:00am 10.4 6.9 8.8 90 0.8 NNW 17 22 9 12 1007.8 1008.2 0.0
 
Date/Time
EST
Temp
°C
App
Temp
°C
Dew
Point
Rel
Hum
%
Delta-T
°C
Wind Press
QNH
hPa
Press
MSL
hPa
Rain
since 9 am
mm
Dir
 
Spd
km/h
Gust
km/h
Spd
kts
Gust
kts
29/11:30pm 10.7 6.8 8.6 87 1.0 NW 19 28 10 15 1008.0 1008.4 0.0
29/11:00pm 10.8 6.6 8.2 84 1.3 NW 20 28 11 15 1008.0 1008.4 0.0
29/10:30pm 11.0 6.0 8.2 83 1.4 WNW 24 30 13 16 1007.9 1008.3 0.0
29/10:00pm 10.6 6.3 7.7 82 1.4 NW 20 30 11 16 1008.0 1008.4 0.0
29/09:30pm 10.8 6.9 7.3 79 1.7 NW 17 20 9 11 1008.0 1008.4 0.0
29/09:00pm 11.3 6.7 6.6 73 2.3 W 20 30 11 16 1007.9 1008.3 0.0
29/08:30pm 11.1 6.8 7.0 76 2.0 WNW 19 28 10 15 1008.4 1008.7 0.0
29/08:00pm 11.1 7.1 6.8 75 2.1 WNW 17 26 9 14 1008.2 1008.6 0.0
29/07:30pm 11.2 5.5 6.9 75 2.1 NW 26 35 14 19 1008.2 1008.6 0.0
29/07:00pm 11.2 4.3 6.3 72 2.3 WNW 32 43 17 23 1007.8 1008.2 0.0
29/06:30pm 11.3 4.0 5.4 67 2.8 WNW 33 44 18 24 1007.4 1007.7 0.0
29/06:00pm 11.3 4.2 5.6 68 2.7 WNW 32 43 17 23 1007.3 1007.6 0.0
29/05:30pm 11.6 4.4 5.0 64 3.1 WNW 32 44 17 24 1007.3 1007.6 0.0
29/05:00pm 12.5 5.8 5.7 63 3.2 WNW 30 43 16 23 1006.9 1007.2 0.0
29/04:30pm 12.7 6.0 5.6 62 3.4 NW 30 37 16 20 1006.8 1007.1 0.0
29/04:00pm 13.7 6.7 5.8 59 3.8 WNW 32 46 17 25 1006.7 1007.0 0.0
29/03:30pm 13.4 7.4 5.3 58 3.8 WNW 26 35 14 19 1006.9 1007.2 0.0
29/03:00pm 14.3 6.9 5.1 54 4.4 WNW 33 46 18 25 1006.8 1007.1 0.0
29/02:30pm 14.1 8.0 6.5 60 3.7 WNW 28 43 15 23 1007.1 1007.4 0.0
29/02:00pm 14.4 6.8 5.7 56 4.2 WNW 35 48 19 26 1007.0 1007.3 0.0
29/01:36pm 14.5 8.4 6.6 59 3.9 NW 28 46 15 25 1007.1 1007.4 0.0
29/01:30pm 14.6 8.7 7.4 62 3.6 NW 28 44 15 24 1007.2 1007.5 0.0
29/01:00pm 15.0 8.0 6.8 58 4.1 WNW 33 50 18 27 1007.1 1007.4 0.0
29/12:53pm 14.8 7.9 6.6 58 4.0 WNW 32 50 17 27 1007.1 1007.4 0.0
29/12:30pm 13.8 7.7 4.9 55 4.2 NW 26 33 14 18 1007.3 1007.6 0.0
29/12:00pm 13.9 6.5 6.7 62 3.5 WNW 35 46 19 25 1007.3 1007.6 0.0
29/11:30am 13.4 8.5 7.0 65 3.1 WNW 22 30 12 16 1007.4 1007.7 0.0
29/11:00am 12.4 5.9 6.5 67 2.9 WNW 30 41 16 22 1007.4 1007.7 0.0
29/10:30am 12.5 5.2 4.7 59 3.6 WNW 32 43 17 23 1007.3 1007.6 0.0
29/10:00am 12.0 6.0 5.2 63 3.2 W 26 35 14 19 1007.5 1007.8 0.0
29/09:30am 11.8 5.5 5.9 67 2.8 WNW 28 44 15 24 1007.5 1007.8 0.0
29/09:00am 11.5 5.7 6.4 71 2.5 WNW 26 41 14 22 1006.9 1007.2 2.6
29/08:30am 10.9 6.4 6.1 72 2.3 WNW 19 28 10 15 1006.5 1006.8 2.6
29/08:00am 10.3 5.3 6.3 76 1.9 WNW 22 32 12 17 1006.5 1006.8 2.6
29/07:30am 9.6 4.8 5.8 77 1.8 NW 20 32 11 17 1006.0 1006.3 2.6
29/07:00am 8.7 5.0 6.3 85 1.1 NW 15 22 8 12 1005.6 1005.9 2.6
29/06:30am 7.7 4.2 5.5 86 1.0 WNW 13 19 7 10 1004.9 1005.2 2.6
29/06:00am 6.6 3.4 4.9 89 0.8 WNW 11 15 6 8 1004.3 1004.6 2.6
29/05:30am 7.5 5.1 5.1 85 1.1 WNW 7 13 4 7 1003.5 1003.8 2.6
29/05:00am 8.0 5.1 4.9 81 1.4 W 9 17 5 9 1003.1 1003.4 2.6
29/04:30am 9.1 3.1 5.3 77 1.7 W 26 44 14 24 1002.5 1002.8 2.6
29/04:00am 9.9 3.6 7.3 84 1.3 W 30 57 16 31 1001.8 1002.0 2.6
29/03:54am 10.1 4.4 8.4 89 0.8 W 28 57 15 31 1001.7 1001.9 2.6
29/03:30am 10.0 7.6 9.9 99 0.1 W 13 20 7 11 1000.7 1001.0 2.0
29/03:00am 9.7 5.8 9.6 99 0.1 NW 20 28 11 15 1000.3 1000.6 0.8
29/02:30am 10.4 6.4 9.0 91 0.7 NW 20 28 11 15 1000.2 1000.5 0.0
29/02:00am 10.4 5.8 8.3 87 1.0 NNW 22 32 12 17 1000.7 1001.0 0.0
29/01:30am 10.6 5.9 7.8 83 1.4 NW 22 33 12 18 1001.3 1001.5 0.0
29/01:00am 10.1 5.0 7.5 84 1.3 NW 24 33 13 18 1001.5 1001.7 0.0
29/12:30am 10.4 5.4 8.0 85 1.2 NW 24 32 13 17 1001.7 1001.9 0.0
29/12:00am 10.6 5.2 7.8 83 1.4 NW 26 35 14 19 1001.1 1001.4 0.0
 
Date/Time
EST
Temp
°C
App
Temp
°C
Dew
Point
Rel
Hum
%
Delta-T
°C
Wind Press
QNH
hPa
Press
MSL
hPa
Rain
since 9 am
mm
Dir
 
Spd
km/h
Gust
km/h
Spd
kts
Gust
kts
28/11:30pm 11.3 4.7 7.6 78 1.8 NW 32 41 17 22 1001.0 1001.3 0.0
28/11:00pm 11.2 7.8 11.2 100 0.0 NW 20 28 11 15 1001.0 1001.3 0.0
28/10:30pm 11.8 8.4 11.2 96 0.3 NNW 20 26 11 14 1000.8 1001.1 0.0
28/10:00pm 12.8 9.8 10.5 86 1.2 NNW 17 24 9 13 1000.6 1000.9 0.0
28/09:30pm 13.9 9.9 10.3 79 1.9 NW 22 32 12 17 1000.8 1001.1 0.0
28/09:00pm 14.4 10.9 10.8 79 1.9 NW 20 32 11 17 1000.8 1001.1 0.0
28/08:30pm 14.4 11.1 11.0 80 1.8 NW 19 26 10 14 1000.7 1001.0 0.0
28/08:00pm 14.1 11.3 11.4 84 1.5 NNW 17 19 9 10 1000.8 1001.1 0.0
28/07:30pm 14.9 12.0 11.1 78 2.1 NW 17 22 9 12 1000.8 1001.1 0.0
28/07:00pm 14.9 12.4 11.1 78 2.1 WNW 15 24 8 13 1001.0 1001.3 0.0
28/06:30pm 15.4 12.5 11.0 75 2.4 NW 17 22 9 12 1001.3 1001.5 0.0
28/06:00pm 15.6 12.8 11.2 75 2.4 NW 17 26 9 14 1001.1 1001.4 0.0
28/05:30pm 15.7 13.3 11.5 76 2.3 NW 15 24 8 13 1001.6 1001.8 0.0
28/05:00pm 15.8 13.5 11.8 77 2.2 NNW 15 19 8 10 1001.4 1001.6 0.0
28/04:30pm 15.5 13.5 11.5 77 2.2 N 13 22 7 12 1001.6 1001.8 0.0
28/04:00pm 15.8 14.0 12.2 79 2.0 NNW 13 19 7 10 1002.1 1002.4 0.0
28/03:30pm 14.8 12.3 11.2 79 1.9 NNW 15 22 8 12 1002.5 1002.8 0.0
28/03:00pm 14.8 13.7 11.8 82 1.6 NNW 9 15 5 8 1003.8 1004.1 0.0
28/02:30pm 15.2 13.7 12.0 81 1.8 NNW 11 15 6 8 1003.9 1004.2 0.0
28/02:00pm 15.7 13.4 11.9 78 2.1 NNW 15 22 8 12 1004.4 1004.7 0.0
28/01:30pm 15.4 13.4 11.6 78 2.1 N 13 19 7 10 1005.0 1005.3 0.0
28/01:00pm 15.0 14.0 12.3 84 1.5 NNW 9 13 5 7 1005.9 1006.2 0.0
28/12:30pm 15.2 14.2 12.2 82 1.7 NNW 9 17 5 9 1006.2 1006.5 0.0
28/12:00pm 15.0 13.2 12.1 83 1.6 N 13 20 7 11 1006.6 1006.9 0.0
28/11:30am 15.0 13.6 12.3 84 1.5 N 11 17 6 9 1007.1 1007.4 0.0
28/11:00am 15.2 13.1 12.3 83 1.6 NNW 15 20 8 11 1007.7 1008.1 0.0
28/10:30am 16.1 14.9 12.7 80 1.9 N 11 17 6 9 1007.4 1007.7 0.0
28/10:00am 15.4 14.2 12.9 85 1.4 NNE 11 20 6 11 1007.7 1008.1 0.0
28/09:30am 14.3 14.6 13.3 94 0.6 E 4 13 2 7 1008.4 1008.7 0.0
28/09:00am 13.0 12.4 12.2 95 0.4 E 7 11 4 6 1009.2 1009.5 0.0
28/08:30am 12.3 11.3 12.3 100 0.0 SE 9 11 5 6 1009.6 1009.9 0.0
28/08:00am 11.8 10.7 11.8 100 0.0 SE 9 13 5 7 1009.7 1010.0 0.0
28/07:30am 11.1 9.8 11.1 100 0.0 SE 9 11 5 6 1010.0 1010.3 0.0
28/07:00am 10.8 9.4 10.8 100 0.0 SE 9 13 5 7 1010.4 1010.7 0.0
28/06:30am 10.7 9.6 10.7 100 0.0 SE 7 11 4 6 1010.7 1011.1 0.0
28/06:00am 10.4 8.9 10.4 100 0.0 SE 9 11 5 6 1010.8 1011.2 0.0
28/05:30am 10.6 9.5 10.6 100 0.0 SE 7 9 4 5 1011.1 1011.5 0.0
28/05:00am 10.5 9.4 10.5 100 0.0 SE 7 11 4 6 1011.3 1011.7 0.0
28/04:30am 10.4 9.2 10.4 100 0.0 SE 7 9 4 5 1011.6 1012.0 0.0
28/04:00am 10.4 8.9 10.4 100 0.0 SE 9 11 5 6 1012.0 1012.3 0.0
28/03:30am 10.4 9.2 10.4 100 0.0 SE 7 9 4 5 1012.5 1012.8 0.0
28/03:00am 10.4 9.2 10.4 100 0.0 SE 7 9 4 5 1012.8 1013.1 0.0
28/02:30am 10.4 8.9 10.4 100 0.0 SE 9 11 5 6 1013.0 1013.3 0.0
28/02:00am 10.4 8.9 10.4 100 0.0 SE 9 11 5 6 1013.5 1013.9 0.0
28/01:30am 10.4 8.9 10.4 100 0.0 SE 9 9 5 5 1014.0 1014.4 0.0
28/01:00am 10.5 9.6 10.5 100 0.0 SSE 6 9 3 5 1014.4 1014.8 0.0
28/12:30am 10.6 10.1 10.6 100 0.0 NE 4 6 2 3 1014.8 1015.2 0.0
28/12:00am 10.5 10.7 10.5 100 0.0 CALM 0 0 0 0 1015.0 1015.4 0.0

Other Formats:

Comma delimited format used in spreadsheet applications
http://www.bom.gov.au/fwo/IDT60801/IDT60801.94955.axf

JavaScript Object Notation format (JSON) in row-major order
http://www.bom.gov.au/fwo/IDT60801/IDT60801.94955.json